sensor_id;sensor_type;location;lat;lon;timestamp;P1;durP1;ratioP1;P2;durP2;ratioP2
3831;SDS011;12460;42.662;23.288;2022-12-18T00:44:38;5.93;;;5.30;;
3831;SDS011;12460;42.662;23.288;2022-12-18T01:00:31;6.73;;;5.83;;
3831;SDS011;12460;42.662;23.288;2022-12-18T01:15:57;7.73;;;6.70;;
3831;SDS011;12460;42.662;23.288;2022-12-18T01:31:19;8.43;;;6.37;;
3831;SDS011;12460;42.662;23.288;2022-12-18T01:46:37;8.93;;;7.13;;
3831;SDS011;12460;42.662;23.288;2022-12-18T02:01:42;11.10;;;8.70;;
3831;SDS011;12460;42.662;23.288;2022-12-18T02:16:55;10.87;;;7.67;;
3831;SDS011;12460;42.662;23.288;2022-12-18T02:32:10;8.77;;;7.30;;
3831;SDS011;12460;42.662;23.288;2022-12-18T02:47:20;7.57;;;6.60;;
3831;SDS011;12460;42.662;23.288;2022-12-18T03:17:48;8.27;;;6.63;;
3831;SDS011;12460;42.662;23.288;2022-12-18T03:33:08;8.37;;;6.20;;
3831;SDS011;12460;42.662;23.288;2022-12-18T04:03:23;6.97;;;5.87;;
3831;SDS011;12460;42.662;23.288;2022-12-18T04:18:38;10.30;;;7.73;;
3831;SDS011;12460;42.662;23.288;2022-12-18T04:34:17;6.73;;;5.93;;
3831;SDS011;12460;42.662;23.288;2022-12-18T04:49:40;7.83;;;6.60;;
3831;SDS011;12460;42.662;23.288;2022-12-18T05:05:03;10.37;;;6.47;;
3831;SDS011;12460;42.662;23.288;2022-12-18T05:20:07;10.43;;;7.60;;
3831;SDS011;12460;42.662;23.288;2022-12-18T05:35:21;12.60;;;8.53;;
3831;SDS011;12460;42.662;23.288;2022-12-18T05:50:25;12.60;;;9.13;;
3831;SDS011;12460;42.662;23.288;2022-12-18T06:05:36;11.60;;;9.00;;
3831;SDS011;12460;42.662;23.288;2022-12-18T06:20:41;15.50;;;9.73;;
3831;SDS011;12460;42.662;23.288;2022-12-18T06:35:46;12.27;;;9.23;;
3831;SDS011;12460;42.662;23.288;2022-12-18T06:50:50;12.73;;;9.50;;
3831;SDS011;12460;42.662;23.288;2022-12-18T07:05:54;12.53;;;8.57;;
3831;SDS011;12460;42.662;23.288;2022-12-18T07:21:02;14.27;;;9.97;;
3831;SDS011;12460;42.662;23.288;2022-12-18T07:36:06;19.37;;;11.07;;
3831;SDS011;12460;42.662;23.288;2022-12-18T07:51:11;15.30;;;10.77;;
3831;SDS011;12460;42.662;23.288;2022-12-18T08:06:17;17.73;;;10.60;;
3831;SDS011;12460;42.662;23.288;2022-12-18T08:21:26;19.83;;;12.70;;
3831;SDS011;12460;42.662;23.288;2022-12-18T08:36:31;19.23;;;12.30;;
3831;SDS011;12460;42.662;23.288;2022-12-18T08:51:36;22.00;;;13.60;;
3831;SDS011;12460;42.662;23.288;2022-12-18T09:06:40;18.87;;;12.37;;
3831;SDS011;12460;42.662;23.288;2022-12-18T09:21:46;23.03;;;13.70;;
3831;SDS011;12460;42.662;23.288;2022-12-18T09:36:51;18.60;;;12.17;;
3831;SDS011;12460;42.662;23.288;2022-12-18T09:52:07;16.37;;;12.07;;
3831;SDS011;12460;42.662;23.288;2022-12-18T10:07:19;19.20;;;13.13;;
3831;SDS011;12460;42.662;23.288;2022-12-18T10:37:58;14.03;;;10.63;;
3831;SDS011;12460;42.662;23.288;2022-12-18T10:53:04;17.07;;;10.80;;
3831;SDS011;12460;42.662;23.288;2022-12-18T11:08:11;16.60;;;11.23;;
3831;SDS011;12460;42.662;23.288;2022-12-18T11:23:25;17.40;;;10.57;;
3831;SDS011;12460;42.662;23.288;2022-12-18T11:38:30;18.57;;;11.10;;
3831;SDS011;12460;42.662;23.288;2022-12-18T11:53:35;15.57;;;10.33;;
3831;SDS011;12460;42.662;23.288;2022-12-18T12:23:53;13.70;;;10.17;;
3831;SDS011;12460;42.662;23.288;2022-12-18T12:39:01;16.80;;;11.13;;
3831;SDS011;12460;42.662;23.288;2022-12-18T12:54:16;19.03;;;11.70;;
3831;SDS011;12460;42.662;23.288;2022-12-18T13:09:29;17.30;;;11.80;;
3831;SDS011;12460;42.662;23.288;2022-12-18T13:24:36;18.83;;;12.23;;
3831;SDS011;12460;42.662;23.288;2022-12-18T13:39:41;17.23;;;11.60;;
3831;SDS011;12460;42.662;23.288;2022-12-18T13:54:57;21.67;;;13.67;;
3831;SDS011;12460;42.662;23.288;2022-12-18T14:10:03;16.87;;;11.37;;
3831;SDS011;12460;42.662;23.288;2022-12-18T14:25:30;18.73;;;11.50;;
3831;SDS011;12460;42.662;23.288;2022-12-18T14:40:34;16.80;;;10.90;;
3831;SDS011;12460;42.662;23.288;2022-12-18T14:55:43;17.90;;;11.17;;
3831;SDS011;12460;42.662;23.288;2022-12-18T15:10:49;18.63;;;11.40;;
3831;SDS011;12460;42.662;23.288;2022-12-18T15:25:57;18.27;;;12.30;;
3831;SDS011;12460;42.662;23.288;2022-12-18T15:41:01;20.30;;;11.13;;
3831;SDS011;12460;42.662;23.288;2022-12-18T15:56:16;14.60;;;9.50;;
3831;SDS011;12460;42.662;23.288;2022-12-18T16:11:41;20.73;;;12.50;;
3831;SDS011;12460;42.662;23.288;2022-12-18T16:26:46;17.00;;;10.90;;
3831;SDS011;12460;42.662;23.288;2022-12-18T16:41:50;19.33;;;11.10;;
3831;SDS011;12460;42.662;23.288;2022-12-18T16:56:56;20.60;;;12.20;;
3831;SDS011;12460;42.662;23.288;2022-12-18T17:12:01;20.00;;;11.70;;
3831;SDS011;12460;42.662;23.288;2022-12-18T17:27:06;19.53;;;11.57;;
3831;SDS011;12460;42.662;23.288;2022-12-18T17:42:11;19.20;;;11.07;;
3831;SDS011;12460;42.662;23.288;2022-12-18T17:57:17;18.10;;;11.30;;
3831;SDS011;12460;42.662;23.288;2022-12-18T18:12:25;16.83;;;11.30;;
3831;SDS011;12460;42.662;23.288;2022-12-18T18:27:48;17.03;;;10.80;;
3831;SDS011;12460;42.662;23.288;2022-12-18T18:42:53;20.50;;;10.97;;
3831;SDS011;12460;42.662;23.288;2022-12-18T18:57:57;18.10;;;10.30;;
3831;SDS011;12460;42.662;23.288;2022-12-18T19:13:02;18.17;;;11.23;;
3831;SDS011;12460;42.662;23.288;2022-12-18T19:28:27;18.43;;;11.50;;
3831;SDS011;12460;42.662;23.288;2022-12-18T19:43:32;18.33;;;11.00;;
3831;SDS011;12460;42.662;23.288;2022-12-18T19:58:38;17.83;;;11.13;;
3831;SDS011;12460;42.662;23.288;2022-12-18T20:13:43;22.07;;;12.03;;
3831;SDS011;12460;42.662;23.288;2022-12-18T20:28:47;25.20;;;12.50;;
3831;SDS011;12460;42.662;23.288;2022-12-18T20:43:52;20.10;;;11.93;;
3831;SDS011;12460;42.662;23.288;2022-12-18T20:58:56;22.13;;;13.10;;
3831;SDS011;12460;42.662;23.288;2022-12-18T21:14:01;22.17;;;13.20;;
3831;SDS011;12460;42.662;23.288;2022-12-18T21:29:09;17.13;;;11.63;;
3831;SDS011;12460;42.662;23.288;2022-12-18T21:44:14;18.27;;;12.10;;
3831;SDS011;12460;42.662;23.288;2022-12-18T21:59:21;22.30;;;12.77;;
3831;SDS011;12460;42.662;23.288;2022-12-18T22:14:25;21.77;;;12.60;;
3831;SDS011;12460;42.662;23.288;2022-12-18T22:29:30;22.90;;;12.33;;
3831;SDS011;12460;42.662;23.288;2022-12-18T22:44:54;20.07;;;12.30;;
3831;SDS011;12460;42.662;23.288;2022-12-18T22:59:58;20.90;;;12.47;;
3831;SDS011;12460;42.662;23.288;2022-12-18T23:15:03;19.97;;;11.70;;
3831;SDS011;12460;42.662;23.288;2022-12-18T23:30:07;20.73;;;12.83;;
3831;SDS011;12460;42.662;23.288;2022-12-18T23:45:12;18.10;;;11.67;;
